createdAt,value
2023-07-25T00:00:11.941Z,24.67
2023-07-25T00:03:18.231Z,24.40
2023-07-25T00:06:24.202Z,24.27
2023-07-25T00:09:31.948Z,24.34
2023-07-25T00:12:37.705Z,24.43
2023-07-25T00:15:43.217Z,24.38
2023-07-25T00:18:48.952Z,24.35
2023-07-25T00:21:55.967Z,24.32
2023-07-25T00:25:02.302Z,24.34
2023-07-25T00:28:08.101Z,24.34
2023-07-25T00:31:22.880Z,24.34
2023-07-25T00:34:29.147Z,24.10
2023-07-25T00:37:34.907Z,23.93
2023-07-25T00:40:40.012Z,23.80
2023-07-25T00:43:39.163Z,23.79
2023-07-25T00:46:45.809Z,23.89
2023-07-25T00:49:51.887Z,24.08
2023-07-25T00:52:57.963Z,24.09
2023-07-25T00:56:03.941Z,24.14
2023-07-25T00:59:11.112Z,24.22
2023-07-25T01:02:17.682Z,24.15
2023-07-25T01:05:24.757Z,24.23
2023-07-25T01:08:30.939Z,24.36
2023-07-25T01:11:37.665Z,24.45
2023-07-25T01:14:47.073Z,24.47
2023-07-25T01:17:54.788Z,24.30
2023-07-25T01:21:01.833Z,24.35
2023-07-25T01:24:06.901Z,24.27
2023-07-25T01:27:13.200Z,24.34
2023-07-25T01:30:20.295Z,24.09
2023-07-25T01:33:28.684Z,23.89
2023-07-25T01:36:34.368Z,23.85
2023-07-25T01:39:40.218Z,23.99
2023-07-25T01:42:45.837Z,23.95
2023-07-25T01:45:52.631Z,23.89
2023-07-25T01:48:58.848Z,23.89
2023-07-25T01:52:04.065Z,23.83
2023-07-25T01:55:11.907Z,23.87
2023-07-25T01:58:21.320Z,23.67
2023-07-25T02:01:28.419Z,23.57
2023-07-25T02:04:20.348Z,23.86
2023-07-25T02:07:27.025Z,23.67
2023-07-25T02:10:35.701Z,23.70
2023-07-25T02:13:40.961Z,23.68
2023-07-25T02:16:48.685Z,23.61
2023-07-25T02:19:54.312Z,23.79
2023-07-25T02:22:53.301Z,23.74
2023-07-25T02:26:00.048Z,23.79
2023-07-25T02:29:06.410Z,23.87
2023-07-25T02:32:12.687Z,23.91
2023-07-25T02:35:18.430Z,24.19
2023-07-25T02:38:23.560Z,24.29
2023-07-25T02:41:30.519Z,24.62
2023-07-25T02:44:37.345Z,25.19
2023-07-25T02:47:44.012Z,25.46
2023-07-25T02:50:49.319Z,25.86
2023-07-25T02:53:56.003Z,26.30
2023-07-25T02:57:01.603Z,26.51
2023-07-25T03:00:07.612Z,26.80
2023-07-25T03:03:13.269Z,27.08
2023-07-25T03:06:21.455Z,27.35
2023-07-25T03:09:28.389Z,27.63
2023-07-25T03:12:34.235Z,27.93
2023-07-25T03:15:40.868Z,28.40
2023-07-25T03:18:46.102Z,28.40
2023-07-25T03:21:51.642Z,28.92
2023-07-25T03:24:58.078Z,28.99
2023-07-25T03:28:04.360Z,29.12
2023-07-25T03:31:10.488Z,29.43
2023-07-25T03:34:16.777Z,29.65
2023-07-25T03:37:15.535Z,29.67
2023-07-25T03:40:08.018Z,29.96
2023-07-25T03:43:14.973Z,30.15
2023-07-25T03:46:20.713Z,30.12
2023-07-25T03:49:25.914Z,30.48
2023-07-25T03:52:31.002Z,30.59
2023-07-25T03:55:36.919Z,30.63
2023-07-25T03:58:43.149Z,30.88
2023-07-25T04:01:48.898Z,30.73
2023-07-25T04:04:55.582Z,30.95
2023-07-25T04:08:01.456Z,30.93
2023-07-25T04:11:07.067Z,31.15
2023-07-25T04:14:12.533Z,31.05
2023-07-25T04:17:18.133Z,31.04
2023-07-25T04:20:24.745Z,30.96
2023-07-25T04:23:29.541Z,30.96
2023-07-25T04:26:34.444Z,30.89
2023-07-25T04:29:40.329Z,30.99
2023-07-25T04:32:47.072Z,30.97
2023-07-25T04:35:54.957Z,31.27
2023-07-25T04:39:00.562Z,31.25
2023-07-25T04:42:06.656Z,31.26
2023-07-25T04:45:12.410Z,31.51
2023-07-25T04:48:17.404Z,31.60
2023-07-25T04:51:23.499Z,31.98
2023-07-25T04:54:30.119Z,32.20
2023-07-25T04:57:36.342Z,32.30
2023-07-25T05:00:35.288Z,32.54
2023-07-25T05:03:40.651Z,32.69
2023-07-25T05:06:47.436Z,32.70
2023-07-25T05:09:53.934Z,32.78
2023-07-25T05:12:53.341Z,33.03
2023-07-25T05:15:47.975Z,33.07
2023-07-25T05:18:56.325Z,33.36
2023-07-25T05:22:01.449Z,33.32
2023-07-25T05:25:07.818Z,33.79
2023-07-25T05:28:14.043Z,33.95
2023-07-25T05:31:19.641Z,34.10
2023-07-25T05:34:25.831Z,34.27
2023-07-25T05:37:36.683Z,34.45
2023-07-25T05:40:45.535Z,34.39
2023-07-25T05:43:53.089Z,34.58
2023-07-25T05:46:59.763Z,34.87
2023-07-25T05:50:06.284Z,35.00
2023-07-25T05:53:12.377Z,35.00
2023-07-25T05:56:17.999Z,35.26
2023-07-25T05:59:23.342Z,35.14
2023-07-25T06:02:29.601Z,35.43
2023-07-25T06:05:35.965Z,35.81
2023-07-25T06:08:42.388Z,35.67
2023-07-25T06:11:47.743Z,35.63
2023-07-25T06:14:53.785Z,36.46
2023-07-25T06:18:00.133Z,36.55
2023-07-25T06:21:06.232Z,36.67
2023-07-25T06:24:13.976Z,36.67
2023-07-25T06:27:19.182Z,36.89
2023-07-25T06:30:25.442Z,36.89
2023-07-25T06:33:30.743Z,36.46
2023-07-25T06:36:37.149Z,35.90
2023-07-25T06:39:42.381Z,35.90
2023-07-25T06:42:42.932Z,36.32
2023-07-25T06:45:37.596Z,36.32
2023-07-25T06:48:42.658Z,36.53
2023-07-25T06:51:49.024Z,36.52
2023-07-25T06:54:56.038Z,36.86
2023-07-25T06:58:03.184Z,36.27
2023-07-25T07:01:09.835Z,36.27
2023-07-25T07:04:15.882Z,36.45
2023-07-25T07:07:21.046Z,36.49
2023-07-25T07:10:41.150Z,36.89
2023-07-25T07:13:48.769Z,37.05
2023-07-25T07:16:55.305Z,37.14
2023-07-25T07:20:02.782Z,37.51
2023-07-25T07:23:09.290Z,37.40
2023-07-25T07:26:15.817Z,37.33
2023-07-25T07:29:21.768Z,37.17
2023-07-25T07:32:27.072Z,37.38
2023-07-25T07:35:33.665Z,37.40
2023-07-25T07:38:40.196Z,37.51
2023-07-25T07:41:46.383Z,37.54
2023-07-25T07:44:52.235Z,37.55
2023-07-25T07:47:58.412Z,37.61
2023-07-25T07:51:04.024Z,37.63
2023-07-25T07:54:09.308Z,37.84
2023-07-25T07:57:14.588Z,37.90
2023-07-25T08:00:21.909Z,37.90
2023-07-25T08:03:28.554Z,37.88
2023-07-25T08:06:35.891Z,37.94
2023-07-25T08:09:42.661Z,37.76
2023-07-25T08:12:48.950Z,38.03
2023-07-25T08:15:55.897Z,38.14
2023-07-25T08:18:54.223Z,38.29
2023-07-25T08:21:41.402Z,38.06
2023-07-25T08:24:53.964Z,38.04
2023-07-25T08:28:00.176Z,38.25
2023-07-25T08:31:19.981Z,38.26
2023-07-25T08:34:24.888Z,38.36
2023-07-25T08:37:33.381Z,38.60
2023-07-25T08:40:38.085Z,38.67
2023-07-25T08:43:43.509Z,38.59
2023-07-25T08:46:48.463Z,38.61
2023-07-25T08:49:57.223Z,38.79
2023-07-25T08:53:04.696Z,38.93
2023-07-25T08:56:12.508Z,38.61
2023-07-25T08:59:18.780Z,38.58
2023-07-25T09:02:18.285Z,38.67
2023-07-25T09:05:11.384Z,38.84
2023-07-25T09:08:17.822Z,38.74
2023-07-25T09:11:24.274Z,38.57
2023-07-25T09:14:29.971Z,38.66
2023-07-25T09:17:35.085Z,38.82
2023-07-25T09:20:41.226Z,38.70
2023-07-25T09:23:48.910Z,38.79
2023-07-25T09:26:54.487Z,38.75
2023-07-25T09:29:59.870Z,38.66
2023-07-25T09:33:05.445Z,38.69
2023-07-25T09:36:10.869Z,38.82
2023-07-25T09:39:17.674Z,38.99
2023-07-25T09:42:24.148Z,39.04
2023-07-25T09:45:29.862Z,39.09
2023-07-25T09:48:36.343Z,38.97
2023-07-25T09:51:42.520Z,38.77
2023-07-25T09:54:47.794Z,38.79
2023-07-25T09:57:55.321Z,38.85
2023-07-25T10:01:01.093Z,38.99
2023-07-25T10:04:06.235Z,39.18
2023-07-25T10:07:14.472Z,39.15
2023-07-25T10:13:33.570Z,38.89
2023-07-25T10:16:32.743Z,38.56
2023-07-25T10:19:37.769Z,38.54
2023-07-25T10:22:54.790Z,38.75
2023-07-25T10:26:02.282Z,38.83
2023-07-25T10:29:07.624Z,38.69
2023-07-25T10:32:13.510Z,38.71
2023-07-25T10:35:19.769Z,38.56
2023-07-25T10:38:28.321Z,38.58
2023-07-25T10:41:34.721Z,38.82
2023-07-25T10:44:52.113Z,39.03
2023-07-25T10:48:01.256Z,39.06
2023-07-25T10:51:06.600Z,39.15
2023-07-25T10:54:28.280Z,39.19
2023-07-25T10:57:34.901Z,39.55
2023-07-25T11:00:54.477Z,39.41
2023-07-25T11:04:00.269Z,39.78
2023-07-25T11:07:06.820Z,39.44
2023-07-25T11:10:20.100Z,39.34
2023-07-25T11:13:25.589Z,39.50
2023-07-25T11:16:30.705Z,39.43
2023-07-25T11:19:43.678Z,39.39
2023-07-25T11:22:49.448Z,39.43
2023-07-25T11:25:55.483Z,39.42
2023-07-25T11:29:01.409Z,39.21
2023-07-25T11:32:10.639Z,39.17
2023-07-25T11:35:10.660Z,39.33
2023-07-25T11:38:17.402Z,39.44
2023-07-25T11:41:23.699Z,39.45
2023-07-25T11:44:32.892Z,39.50
2023-07-25T11:47:38.678Z,39.50
2023-07-25T11:50:43.859Z,39.57
2023-07-25T11:53:48.386Z,39.99
2023-07-25T11:56:54.273Z,39.56
2023-07-25T11:59:59.845Z,39.71
2023-07-25T12:03:05.981Z,39.80
2023-07-25T12:06:14.177Z,39.92
2023-07-25T12:09:19.586Z,40.05
2023-07-25T12:12:31.389Z,40.12
2023-07-25T12:15:39.196Z,39.99
2023-07-25T12:18:46.258Z,39.86
2023-07-25T12:21:55.028Z,39.73
2023-07-25T12:25:01.620Z,39.92
2023-07-25T12:28:06.799Z,39.63
2023-07-25T12:31:11.991Z,39.57
2023-07-25T12:34:17.377Z,39.60
2023-07-25T12:37:24.124Z,39.60
2023-07-25T12:40:30.191Z,39.55
2023-07-25T12:43:36.750Z,39.55
2023-07-25T12:46:45.781Z,39.52
2023-07-25T12:49:52.278Z,39.47
2023-07-25T12:52:59.670Z,39.50
2023-07-25T12:56:05.428Z,39.42
2023-07-25T12:59:12.099Z,39.43
2023-07-25T13:02:18.032Z,39.21
2023-07-25T13:05:24.015Z,39.20
2023-07-25T13:08:29.465Z,39.24
2023-07-25T13:11:36.302Z,39.31
2023-07-25T13:14:42.079Z,39.41
2023-07-25T13:17:49.751Z,39.49
2023-07-25T13:20:56.024Z,39.49
2023-07-25T13:24:01.010Z,39.46
2023-07-25T13:27:08.792Z,39.42
2023-07-25T13:30:14.820Z,39.47
2023-07-25T13:33:20.481Z,39.34
2023-07-25T13:36:26.923Z,39.46
2023-07-25T13:39:33.764Z,39.57
2023-07-25T13:42:42.248Z,39.44
2023-07-25T13:45:53.274Z,39.47
2023-07-25T13:48:59.671Z,39.38
2023-07-25T13:52:05.978Z,39.39
2023-07-25T13:55:04.732Z,39.19
2023-07-25T14:01:18.670Z,39.10
2023-07-25T14:04:25.473Z,39.04
2023-07-25T14:07:33.315Z,38.92
2023-07-25T14:10:41.778Z,38.96
2023-07-25T14:13:48.006Z,38.82
2023-07-25T14:16:53.949Z,38.66
2023-07-25T14:20:00.343Z,38.54
2023-07-25T14:23:05.815Z,38.52
2023-07-25T14:26:11.510Z,38.55
2023-07-25T14:29:17.932Z,38.43
2023-07-25T14:32:25.797Z,38.31
2023-07-25T14:35:32.524Z,38.41
2023-07-25T14:38:38.748Z,38.58
2023-07-25T14:41:44.796Z,38.70
2023-07-25T14:44:51.278Z,38.74
2023-07-25T14:47:51.421Z,38.54
2023-07-25T14:50:57.580Z,38.63
2023-07-25T14:54:02.778Z,38.41
2023-07-25T14:57:07.536Z,38.37
2023-07-25T15:00:13.244Z,38.27
2023-07-25T15:03:19.678Z,38.14
2023-07-25T15:06:26.153Z,37.91
2023-07-25T15:09:32.117Z,37.96
2023-07-25T15:12:37.978Z,37.91
2023-07-25T15:15:44.176Z,37.69
2023-07-25T15:18:53.801Z,37.90
2023-07-25T15:22:00.519Z,37.81
2023-07-25T15:25:07.042Z,37.87
2023-07-25T15:28:12.240Z,37.75
2023-07-25T15:31:18.052Z,37.63
2023-07-25T15:34:23.395Z,37.92
2023-07-25T15:37:24.181Z,37.74
2023-07-25T15:40:17.893Z,37.74
2023-07-25T15:43:16.619Z,37.84
2023-07-25T15:46:24.917Z,37.74
2023-07-25T15:49:24.384Z,37.77
2023-07-25T15:52:31.266Z,37.51
2023-07-25T15:55:37.003Z,37.29
2023-07-25T15:58:43.580Z,37.15
2023-07-25T16:01:49.632Z,37.32
2023-07-25T16:04:55.963Z,37.25
2023-07-25T16:08:01.182Z,37.37
2023-07-25T16:11:06.565Z,37.41
2023-07-25T16:14:12.300Z,37.28
2023-07-25T16:17:18.041Z,37.19
2023-07-25T16:20:24.528Z,37.12
2023-07-25T16:23:29.941Z,36.97
2023-07-25T16:26:36.031Z,36.95
2023-07-25T16:29:41.345Z,36.84
2023-07-25T16:32:47.938Z,36.79
2023-07-25T16:35:55.524Z,36.60
2023-07-25T16:39:01.759Z,36.97
2023-07-25T16:42:11.088Z,36.82
2023-07-25T16:45:18.434Z,36.51
2023-07-25T16:48:24.883Z,36.43
2023-07-25T16:51:30.732Z,36.28
2023-07-25T16:54:36.361Z,36.15
2023-07-25T16:57:43.640Z,36.03
2023-07-25T17:00:49.477Z,35.96
2023-07-25T17:03:54.634Z,35.98
2023-07-25T17:07:00.232Z,35.98
2023-07-25T17:13:10.958Z,35.73
2023-07-25T17:16:17.600Z,35.71
2023-07-25T17:19:22.889Z,35.88
2023-07-25T17:22:29.933Z,35.75
2023-07-25T17:25:34.576Z,35.42
2023-07-25T17:28:40.331Z,34.95
2023-07-25T17:31:45.576Z,35.04
2023-07-25T17:34:51.914Z,35.02
2023-07-25T17:37:57.763Z,35.03
2023-07-25T17:41:04.562Z,34.92
2023-07-25T17:44:03.380Z,34.72
2023-07-25T17:47:08.827Z,34.64
2023-07-25T17:50:14.406Z,34.45
2023-07-25T17:53:20.146Z,34.29
2023-07-25T17:56:26.133Z,34.27
2023-07-25T17:59:32.238Z,34.06
2023-07-25T18:02:37.832Z,33.81
2023-07-25T18:05:43.198Z,33.58
2023-07-25T18:08:49.134Z,33.71
2023-07-25T18:11:54.744Z,33.62
2023-07-25T18:15:00.642Z,33.57
2023-07-25T18:18:06.565Z,33.53
2023-07-25T18:21:12.526Z,33.48
2023-07-25T18:24:18.932Z,33.40
2023-07-25T18:27:25.721Z,33.37
2023-07-25T18:30:32.141Z,33.34
2023-07-25T18:33:39.074Z,33.35
2023-07-25T18:36:45.026Z,33.23
2023-07-25T18:39:51.976Z,33.02
2023-07-25T18:42:57.652Z,32.95
2023-07-25T18:46:03.492Z,33.02
2023-07-25T18:49:10.063Z,33.20
2023-07-25T18:52:15.549Z,33.06
2023-07-25T18:55:22.946Z,32.96
2023-07-25T18:58:49.202Z,32.61
2023-07-25T19:01:57.874Z,32.72
2023-07-25T19:05:03.193Z,32.68
2023-07-25T19:08:09.882Z,32.40
2023-07-25T19:11:15.643Z,32.37
2023-07-25T19:14:22.342Z,32.23
2023-07-25T19:17:27.527Z,32.12
2023-07-25T19:20:33.874Z,32.09
2023-07-25T19:23:40.755Z,32.03
2023-07-25T19:26:47.313Z,32.03
2023-07-25T19:29:54.180Z,32.01
2023-07-25T19:33:00.866Z,32.03
2023-07-25T19:36:10.535Z,31.93
2023-07-25T19:39:16.514Z,31.94
2023-07-25T19:42:23.258Z,31.69
2023-07-25T19:45:29.095Z,31.49
2023-07-25T19:48:35.449Z,31.63
2023-07-25T19:51:40.903Z,31.55
2023-07-25T19:54:47.592Z,31.52
2023-07-25T19:57:54.170Z,31.51
2023-07-25T20:00:59.512Z,31.18
2023-07-25T20:04:08.140Z,30.90
2023-07-25T20:07:15.867Z,30.87
2023-07-25T20:10:35.551Z,30.71
2023-07-25T20:13:39.976Z,30.59
2023-07-25T20:16:46.314Z,30.40
2023-07-25T20:19:51.986Z,30.33
2023-07-25T20:22:58.913Z,30.25
2023-07-25T20:26:05.315Z,30.32
2023-07-25T20:29:11.394Z,30.38
2023-07-25T20:32:17.931Z,30.36
2023-07-25T20:35:23.013Z,30.15
2023-07-25T20:38:29.060Z,30.09
2023-07-25T20:41:35.017Z,30.14
2023-07-25T20:44:40.309Z,30.15
2023-07-25T20:47:45.065Z,30.15
2023-07-25T20:50:51.351Z,30.14
2023-07-25T20:53:57.286Z,30.20
2023-07-25T20:57:03.541Z,30.14
2023-07-25T21:00:09.828Z,30.07
2023-07-25T21:03:16.518Z,29.99
2023-07-25T21:06:22.029Z,30.10
2023-07-25T21:09:27.971Z,29.99
2023-07-25T21:12:33.714Z,29.97
2023-07-25T21:15:39.520Z,29.95
2023-07-25T21:18:45.226Z,29.90
2023-07-25T21:21:52.102Z,30.05
2023-07-25T21:24:58.606Z,29.99
2023-07-25T21:28:05.262Z,30.15
2023-07-25T21:31:12.945Z,30.15
2023-07-25T21:34:18.498Z,30.26
2023-07-25T21:37:25.170Z,30.57
2023-07-25T21:40:32.033Z,30.61
2023-07-25T21:43:38.539Z,30.50
2023-07-25T21:46:40.005Z,30.67
2023-07-25T21:49:45.088Z,30.65
2023-07-25T21:52:51.875Z,30.56
2023-07-25T21:55:56.567Z,30.58
2023-07-25T21:59:02.224Z,30.80
2023-07-25T22:02:09.688Z,30.72
2023-07-25T22:05:15.474Z,30.56
2023-07-25T22:08:13.969Z,30.66
2023-07-25T22:11:20.472Z,30.78
2023-07-25T22:14:26.124Z,30.91
2023-07-25T22:17:25.055Z,30.82
2023-07-25T22:20:38.330Z,30.75
2023-07-25T22:23:37.446Z,30.75
2023-07-25T22:26:43.992Z,30.70
2023-07-25T22:29:49.394Z,31.19
2023-07-25T22:32:56.023Z,30.90
2023-07-25T22:36:02.708Z,30.64
2023-07-25T22:39:09.570Z,30.62
2023-07-25T22:42:14.798Z,31.01
2023-07-25T22:45:20.528Z,31.30
2023-07-25T22:48:18.884Z,31.08
2023-07-25T22:51:18.903Z,31.03
2023-07-25T22:54:23.534Z,31.20
2023-07-25T22:57:28.793Z,31.35
2023-07-25T23:00:34.482Z,31.19
2023-07-25T23:03:43.273Z,30.98
2023-07-25T23:06:48.940Z,30.87
2023-07-25T23:09:55.715Z,30.89
2023-07-25T23:13:08.808Z,30.80
2023-07-25T23:16:14.673Z,30.94
2023-07-25T23:19:20.847Z,31.40
2023-07-25T23:22:26.365Z,30.98
2023-07-25T23:25:32.175Z,30.93
2023-07-25T23:28:38.805Z,30.94
2023-07-25T23:31:44.793Z,30.89
2023-07-25T23:35:02.392Z,30.76
2023-07-25T23:38:07.644Z,30.84
2023-07-25T23:41:14.553Z,30.78
2023-07-25T23:44:21.782Z,30.78
2023-07-25T23:47:27.439Z,30.85
2023-07-25T23:50:34.251Z,30.54
2023-07-25T23:53:40.887Z,30.76
2023-07-25T23:56:48.620Z,30.58
2023-07-25T23:59:55.233Z,30.55
